Time;durP1;ratioP1;P1;durP2;ratioP2;P2;SDS_P1;SDS_P2;PMS_P1;PMS_P2;Temp;Humidity;BMP_temperature;BMP_pressure;BME280_temperature;BME280_humidity;BME280_pressure;Samples;Min_cycle;Max_cycle;Signal;HPM_P1;HPM_P2
2022/08/20 00:02:09;;;;;;;14.77;13.27;;;18.60;99.90;;;;;;5133505;27;20310;-52
2022/08/20 00:04:37;;;;;;;15.45;13.95;;;18.60;99.90;;;;;;5132347;27;20668;-51
2022/08/20 00:07:07;;;;;;;15.43;13.93;;;18.60;99.90;;;;;;5127724;27;20303;-52
2022/08/20 00:09:35;;;;;;;15.48;13.90;;;18.50;99.90;;;;;;5133915;27;20203;-52
2022/08/20 00:12:05;;;;;;;14.63;13.15;;;18.50;99.90;;;;;;5133954;27;20644;-51
2022/08/20 00:14:33;;;;;;;15.00;13.50;;;18.50;99.90;;;;;;5133902;27;20256;-51
2022/08/20 00:17:02;;;;;;;15.27;13.88;;;18.50;99.90;;;;;;5123287;27;20196;-51
2022/08/20 00:19:31;;;;;;;15.65;14.05;;;18.50;99.90;;;;;;5131350;27;20214;-52
2022/08/20 00:21:59;;;;;;;15.98;13.93;;;18.40;99.90;;;;;;5123048;27;20574;-51
2022/08/20 00:24:28;;;;;;;15.32;13.82;;;18.40;99.90;;;;;;5130287;27;20281;-52
2022/08/20 00:26:56;;;;;;;16.00;14.25;;;18.40;99.90;;;;;;5127064;27;20223;-51
2022/08/20 00:29:24;;;;;;;16.45;14.85;;;18.30;99.90;;;;;;5108978;28;20208;-52
2022/08/20 00:31:52;;;;;;;16.85;14.15;;;18.20;99.90;;;;;;5113211;28;20601;-52
2022/08/20 00:34:20;;;;;;;15.48;13.80;;;18.20;99.90;;;;;;5123244;27;20199;-52
2022/08/20 00:36:48;;;;;;;16.02;14.10;;;18.20;99.90;;;;;;5133862;27;20252;-51
2022/08/20 00:39:16;;;;;;;17.65;14.75;;;18.10;99.90;;;;;;5133026;27;20199;-51
2022/08/20 00:41:46;;;;;;;16.35;14.65;;;18.10;99.90;;;;;;5133224;27;20268;-52
2022/08/20 00:44:16;;;;;;;19.20;14.35;;;18.10;99.90;;;;;;5133299;27;20203;-51
2022/08/20 00:46:45;;;;;;;15.88;14.18;;;18.10;99.90;;;;;;5128996;27;20219;-52
2022/08/20 00:49:17;;;;;;;17.05;14.90;;;18.00;99.90;;;;;;5110865;27;20279;-51
2022/08/20 00:51:50;;;;;;;16.13;14.57;;;17.90;99.90;;;;;;5112853;28;20219;-52
2022/08/20 00:54:22;;;;;;;16.58;14.90;;;18.00;99.90;;;;;;5112519;28;20256;-51
2022/08/20 00:56:56;;;;;;;17.80;15.75;;;17.90;99.90;;;;;;5112523;28;20207;-52
2022/08/20 00:59:28;;;;;;;18.80;15.90;;;17.90;99.90;;;;;;5112861;28;20248;-50
2022/08/20 01:01:57;;;;;;;17.83;15.93;;;17.90;99.90;;;;;;5111735;28;20235;-51
2022/08/20 01:04:27;;;;;;;18.45;16.25;;;17.80;99.90;;;;;;5111835;27;20290;-52
2022/08/20 01:06:55;;;;;;;20.70;16.23;;;17.80;99.90;;;;;;5103039;28;20273;-50
2022/08/20 01:09:24;;;;;;;18.42;15.57;;;17.80;99.90;;;;;;5111663;28;20252;-52
2022/08/20 01:12:15;;;;;;;16.63;14.93;;;17.80;99.90;;;;;;5112615;28;20302;-51
2022/08/20 01:14:46;;;;;;;17.02;15.07;;;17.80;99.90;;;;;;5111859;28;20245;-51
2022/08/20 01:17:18;;;;;;;18.10;16.17;;;17.80;99.90;;;;;;5103669;28;20261;-51
2022/08/20 01:19:52;;;;;;;16.13;14.43;;;17.70;99.90;;;;;;5111093;28;20665;-51
2022/08/20 01:25:20;;;;;;;17.52;15.73;;;17.60;99.90;;;;;;5111821;28;20199;-50
2022/08/20 01:27:53;;;;;;;18.40;16.52;;;17.60;99.90;;;;;;5107228;28;20219;-51
2022/08/20 01:30:26;;;;;;;20.17;17.48;;;17.60;99.90;;;;;;5111759;28;20218;-51
2022/08/20 01:32:54;;;;;;;19.50;16.67;;;17.60;99.90;;;;;;5103741;28;20245;-49
2022/08/20 01:35:24;;;;;;;19.85;17.75;;;17.60;99.90;;;;;;5112021;28;20215;-51
2022/08/20 01:37:52;;;;;;;18.83;15.93;;;17.60;99.90;;;;;;5111775;28;20688;-51
2022/08/20 01:40:38;;;;;;;19.05;16.10;;;17.60;99.90;;;;;;5111530;28;20215;-51
2022/08/20 01:43:08;;;;;;;17.20;15.45;;;17.60;99.90;;;;;;5112136;28;20922;-51
2022/08/20 01:45:38;;;;;;;20.67;16.48;;;17.60;99.90;;;;;;5110852;28;20207;-52
2022/08/20 01:48:07;;;;;;;18.02;16.23;;;17.60;99.90;;;;;;5111301;28;20227;-51
2022/08/20 01:50:40;;;;;;;20.15;17.05;;;17.50;99.90;;;;;;5111376;28;20224;-51
2022/08/20 01:53:18;;;;;;;17.83;15.90;;;17.50;99.90;;;;;;5111828;28;20223;-51
2022/08/20 01:55:46;;;;;;;18.63;16.67;;;17.60;99.90;;;;;;5111018;28;20200;-52
2022/08/20 01:58:16;;;;;;;19.45;17.50;;;17.60;99.90;;;;;;5111337;28;20248;-51
2022/08/20 02:00:44;;;;;;;18.48;16.40;;;17.60;99.90;;;;;;5111177;28;20626;-51
2022/08/20 02:03:12;;;;;;;20.40;17.13;;;17.60;99.90;;;;;;5110763;28;20223;-51
2022/08/20 02:05:40;;;;;;;18.65;16.40;;;17.60;99.90;;;;;;5111431;28;20211;-52
2022/08/20 02:08:09;;;;;;;19.48;17.48;;;17.60;99.90;;;;;;5110948;28;20223;-51
2022/08/20 02:10:37;;;;;;;20.65;17.00;;;17.60;99.90;;;;;;5110780;28;20261;-51
2022/08/20 02:13:07;;;;;;;20.85;16.55;;;17.60;99.90;;;;;;5110520;28;20250;-51
2022/08/20 02:15:37;;;;;;;19.27;17.27;;;17.60;99.90;;;;;;5110470;28;20212;-52
2022/08/20 02:18:09;;;;;;;18.23;15.98;;;17.60;99.90;;;;;;5110390;28;20196;-51
2022/08/20 02:20:40;;;;;;;18.33;16.40;;;17.60;99.90;;;;;;5110303;28;20249;-51
2022/08/20 02:23:10;;;;;;;20.42;17.75;;;17.60;99.90;;;;;;5110728;28;20275;-52
2022/08/20 02:25:41;;;;;;;19.23;17.23;;;17.60;99.90;;;;;;5110734;28;20245;-52
2022/08/20 02:28:12;;;;;;;19.17;16.38;;;17.60;99.90;;;;;;5107026;28;20251;-52
2022/08/20 02:30:44;;;;;;;19.30;17.40;;;17.60;99.90;;;;;;5110784;28;20316;-52
2022/08/20 02:33:14;;;;;;;18.80;16.95;;;17.60;99.90;;;;;;5103148;28;20223;-51
2022/08/20 02:35:45;;;;;;;22.00;17.33;;;17.60;99.90;;;;;;5110576;28;20218;-52
2022/08/20 02:38:14;;;;;;;18.63;16.70;;;17.60;99.90;;;;;;5109635;28;20207;-52
2022/08/20 02:40:44;;;;;;;19.63;17.65;;;17.70;99.90;;;;;;5110338;28;20203;-51
2022/08/20 02:43:13;;;;;;;18.00;16.20;;;17.70;99.90;;;;;;5109710;28;20231;-51
2022/08/20 02:45:43;;;;;;;17.25;15.52;;;17.70;99.90;;;;;;5109395;28;20203;-52
2022/08/20 02:48:19;;;;;;;18.10;16.30;;;17.70;99.90;;;;;;5110258;28;20638;-51
2022/08/20 02:50:51;;;;;;;17.95;16.15;;;17.60;99.90;;;;;;5109467;28;20298;-51
2022/08/20 02:53:19;;;;;;;18.38;16.52;;;17.60;99.90;;;;;;5110149;28;20219;-51
2022/08/20 02:55:47;;;;;;;19.55;17.55;;;17.60;99.90;;;;;;5109943;28;20196;-51
2022/08/20 02:58:16;;;;;;;19.25;16.77;;;17.60;99.90;;;;;;5110332;28;20252;-51
2022/08/20 03:00:46;;;;;;;22.33;18.20;;;17.60;99.90;;;;;;5110332;28;20199;-51
2022/08/20 03:03:14;;;;;;;19.33;16.73;;;17.70;99.90;;;;;;5109868;28;20277;-51
2022/08/20 03:05:44;;;;;;;19.02;16.67;;;17.70;99.90;;;;;;5110144;28;20307;-51
2022/08/20 03:08:14;;;;;;;22.08;18.45;;;17.80;99.90;;;;;;5109775;28;20262;-51
2022/08/20 03:10:45;;;;;;;21.13;17.95;;;17.80;99.90;;;;;;5109287;28;20219;-52
2022/08/20 03:13:14;;;;;;;19.15;17.17;;;17.80;99.90;;;;;;5109950;28;20231;-51
2022/08/20 03:15:47;;;;;;;21.25;18.38;;;17.80;99.90;;;;;;5109451;28;20207;-51
2022/08/20 03:18:16;;;;;;;20.70;17.63;;;17.90;99.90;;;;;;5109642;28;20200;-51
2022/08/20 03:20:46;;;;;;;20.77;18.58;;;17.90;99.90;;;;;;5109608;28;20207;-51
2022/08/20 03:23:20;;;;;;;20.10;18.00;;;17.80;99.90;;;;;;5109574;28;20247;-52
2022/08/20 03:25:48;;;;;;;21.42;19.10;;;17.90;99.90;;;;;;5108466;28;20207;-52
2022/08/20 03:28:17;;;;;;;21.13;17.88;;;17.90;99.90;;;;;;5103866;28;20630;-52
2022/08/20 03:30:47;;;;;;;24.17;18.35;;;17.90;99.90;;;;;;5109753;28;20221;-52
2022/08/20 03:33:15;;;;;;;20.33;18.13;;;18.00;99.90;;;;;;5103105;28;20299;-52
2022/08/20 03:35:43;;;;;;;20.95;18.75;;;18.00;99.90;;;;;;5108632;28;20245;-51
2022/08/20 03:38:13;;;;;;;21.92;18.95;;;18.00;99.90;;;;;;5109641;28;20203;-51
2022/08/20 03:40:42;;;;;;;20.75;17.77;;;18.00;99.90;;;;;;5109580;28;20286;-52
2022/08/20 03:43:11;;;;;;;19.63;17.58;;;18.00;99.90;;;;;;5109416;28;20238;-51
2022/08/20 03:45:41;;;;;;;20.42;17.90;;;17.90;99.90;;;;;;5109545;28;20588;-51
2022/08/20 03:48:13;;;;;;;21.50;18.23;;;18.00;99.90;;;;;;5109114;28;20280;-52
2022/08/20 03:50:41;;;;;;;19.95;17.73;;;17.90;99.90;;;;;;5108987;28;20207;-52
2022/08/20 03:53:11;;;;;;;20.48;18.27;;;18.00;99.90;;;;;;5109847;28;20231;-51
2022/08/20 03:55:44;;;;;;;21.27;17.83;;;18.00;99.90;;;;;;5108342;28;20280;-51
2022/08/20 03:58:20;;;;;;;19.27;17.27;;;18.00;99.90;;;;;;5109389;28;20629;-51
2022/08/20 04:00:59;;;;;;;22.75;19.33;;;18.00;99.90;;;;;;5109792;28;20203;-51
2022/08/20 04:03:31;;;;;;;19.33;17.23;;;18.00;99.90;;;;;;5115892;28;20227;-51
2022/08/20 04:05:59;;;;;;;18.38;16.48;;;18.00;99.90;;;;;;5124627;28;20199;-51
2022/08/20 04:08:29;;;;;;;19.27;16.45;;;18.00;99.90;;;;;;5120721;28;20215;-52
2022/08/20 04:10:59;;;;;;;19.83;16.55;;;18.10;99.90;;;;;;5124871;28;20211;-52
2022/08/20 04:13:29;;;;;;;20.45;18.35;;;18.10;99.90;;;;;;5127409;28;20227;-52
2022/08/20 04:15:58;;;;;;;21.00;18.75;;;18.10;99.90;;;;;;5123154;28;20204;-52
2022/08/20 04:18:26;;;;;;;22.00;19.70;;;18.10;99.90;;;;;;5124180;28;20203;-51
2022/08/20 04:20:56;;;;;;;20.73;17.52;;;18.10;99.90;;;;;;5121696;28;20672;-52
2022/08/20 04:23:24;;;;;;;20.52;17.05;;;18.10;99.90;;;;;;5126282;28;20226;-52
2022/08/20 04:25:53;;;;;;;18.83;16.73;;;18.10;99.90;;;;;;5125458;28;20203;-52
2022/08/20 04:28:25;;;;;;;19.13;17.15;;;18.10;99.90;;;;;;5123618;28;20248;-52
2022/08/20 04:30:54;;;;;;;20.38;18.25;;;18.10;99.90;;;;;;5118540;28;20203;-52
2022/08/20 04:33:24;;;;;;;23.23;18.83;;;18.20;99.90;;;;;;5109220;28;20268;-51
2022/08/20 04:36:05;;;;;;;23.45;18.30;;;18.20;99.90;;;;;;5110645;28;20290;-50
2022/08/20 04:38:33;;;;;;;20.52;18.52;;;18.20;99.90;;;;;;5112798;28;20204;-51
2022/08/20 04:41:19;;;;;;;20.38;18.05;;;18.20;99.90;;;;;;5112238;28;20300;-52
2022/08/20 04:43:52;;;;;;;19.25;17.23;;;18.20;99.90;;;;;;5112994;28;20890;-51
2022/08/20 04:46:24;;;;;;;17.55;15.82;;;18.30;99.90;;;;;;5113079;28;20243;-51
2022/08/20 04:48:52;;;;;;;18.52;16.58;;;18.30;99.90;;;;;;5112493;28;20295;-51
2022/08/20 04:51:22;;;;;;;18.02;16.20;;;18.30;99.90;;;;;;5112392;28;20253;-52
2022/08/20 04:53:52;;;;;;;17.25;15.55;;;18.30;99.90;;;;;;5112199;28;20204;-51
2022/08/20 04:56:22;;;;;;;21.60;16.13;;;18.40;99.90;;;;;;5109859;28;20333;-51
2022/08/20 04:58:53;;;;;;;18.20;15.95;;;18.40;99.90;;;;;;5110795;28;20617;-51
2022/08/20 05:01:22;;;;;;;18.73;16.88;;;18.40;99.90;;;;;;5111587;28;20399;-51
2022/08/20 05:03:53;;;;;;;19.23;17.08;;;18.40;99.90;;;;;;5110944;28;20286;-52
2022/08/20 05:06:25;;;;;;;20.00;17.35;;;18.50;99.90;;;;;;5111900;28;20318;-51
2022/08/20 05:08:54;;;;;;;21.35;18.38;;;18.50;99.90;;;;;;5109079;28;20261;-52
2022/08/20 05:11:23;;;;;;;20.65;17.92;;;18.50;99.90;;;;;;5110133;27;20272;-52
2022/08/20 05:14:05;;;;;;;20.77;17.50;;;18.50;99.90;;;;;;5111912;28;20199;-52
2022/08/20 05:16:37;;;;;;;20.23;17.83;;;18.60;99.90;;;;;;5111402;28;20235;-52
2022/08/20 05:19:07;;;;;;;19.05;17.00;;;18.60;99.90;;;;;;5106786;28;21064;-52
2022/08/20 05:21:37;;;;;;;17.52;15.73;;;18.70;99.90;;;;;;5111648;28;20218;-51
2022/08/20 05:24:06;;;;;;;18.40;16.52;;;18.70;99.90;;;;;;5101754;28;20280;-52
2022/08/20 05:26:34;;;;;;;20.83;16.33;;;18.80;99.90;;;;;;5104760;28;20260;-51
2022/08/20 05:29:03;;;;;;;17.33;15.52;;;18.90;99.90;;;;;;5111161;28;20691;-52
2022/08/20 05:31:33;;;;;;;18.00;16.10;;;18.90;99.90;;;;;;5111236;28;20254;-52
2022/08/20 05:34:02;;;;;;;20.77;17.45;;;19.00;99.90;;;;;;5111609;28;20868;-51
2022/08/20 05:36:30;;;;;;;18.88;16.88;;;19.00;99.90;;;;;;5111590;28;20240;-52
2022/08/20 05:38:59;;;;;;;18.13;16.25;;;19.10;99.90;;;;;;5110968;28;20696;-52
2022/08/20 05:41:28;;;;;;;19.85;17.85;;;19.10;99.90;;;;;;5110903;28;20196;-52
2022/08/20 05:44:00;;;;;;;22.48;18.25;;;19.20;99.90;;;;;;5111172;28;20229;-52
2022/08/20 05:46:30;;;;;;;19.48;17.45;;;19.20;99.90;;;;;;5117555;27;20289;-52
2022/08/20 05:49:00;;;;;;;20.20;17.73;;;19.20;99.90;;;;;;5127283;27;20245;-52
2022/08/20 05:51:29;;;;;;;17.92;16.10;;;19.20;99.90;;;;;;5130458;27;20232;-52
2022/08/20 05:53:59;;;;;;;20.27;16.30;;;19.20;99.90;;;;;;5127866;27;20199;-52
2022/08/20 05:56:29;;;;;;;16.83;15.13;;;19.20;99.90;;;;;;5127425;27;20210;-52
2022/08/20 05:59:00;;;;;;;17.70;15.85;;;19.20;99.90;;;;;;5129555;27;20663;-52
2022/08/20 06:01:28;;;;;;;16.55;14.68;;;19.30;99.90;;;;;;5129887;27;20223;-52
2022/08/20 06:06:43;;;;;;;16.25;14.10;;;19.40;99.90;;;;;;5127998;27;20195;-51
2022/08/20 06:09:16;;;;;;;16.08;14.38;;;19.50;99.90;;;;;;5126772;27;20299;-52
2022/08/20 06:11:59;;;;;;;17.45;14.05;;;19.50;99.90;;;;;;5123114;27;20276;-52
2022/08/20 06:14:27;;;;;;;17.15;13.68;;;19.60;99.90;;;;;;5120355;27;20203;-52
2022/08/20 06:16:55;;;;;;;16.73;14.00;;;19.70;99.90;;;;;;5118813;27;20211;-52
2022/08/20 06:19:26;;;;;;;17.27;14.68;;;19.80;99.90;;;;;;5110215;28;20200;-52
2022/08/20 06:21:59;;;;;;;15.20;13.57;;;19.80;99.90;;;;;;5110393;28;20332;-52
2022/08/20 06:24:29;;;;;;;16.15;14.30;;;19.90;99.90;;;;;;5109513;28;20874;-52
2022/08/20 06:26:57;;;;;;;15.77;14.07;;;19.90;99.90;;;;;;5110416;28;20225;-52
2022/08/20 06:29:26;;;;;;;15.90;14.23;;;19.90;99.90;;;;;;5106737;28;20660;-51
2022/08/20 06:31:54;;;;;;;17.35;13.80;;;19.90;99.90;;;;;;5110154;28;20235;-52
2022/08/20 06:34:27;;;;;;;15.98;13.45;;;20.00;99.90;;;;;;5110470;28;20733;-51
2022/08/20 06:36:58;;;;;;;21.90;15.43;;;20.00;99.90;;;;;;5110609;28;20302;-52
2022/08/20 06:39:29;;;;;;;17.75;15.85;;;20.00;99.90;;;;;;5109895;28;20248;-52
2022/08/20 06:41:58;;;;;;;17.02;14.25;;;20.10;99.90;;;;;;5110636;28;20617;-52
2022/08/20 06:44:27;;;;;;;18.30;14.43;;;20.10;99.90;;;;;;5110184;28;20204;-52
2022/08/20 06:46:59;;;;;;;16.35;13.98;;;20.10;99.90;;;;;;5110732;28;20203;-52
2022/08/20 06:49:27;;;;;;;15.00;13.40;;;20.20;99.90;;;;;;5109396;28;20660;-52
2022/08/20 06:52:02;;;;;;;15.27;12.02;;;20.30;99.90;;;;;;5117349;27;20230;-52
2022/08/20 06:54:33;;;;;;;15.77;14.13;;;20.40;99.90;;;;;;5121234;27;20211;-52
2022/08/20 06:57:02;;;;;;;14.95;13.43;;;20.50;99.90;;;;;;5110490;27;20208;-52
2022/08/20 06:59:30;;;;;;;16.08;14.48;;;20.60;99.90;;;;;;5108934;28;20204;-52
2022/08/20 07:01:58;;;;;;;15.02;13.52;;;21.30;99.90;;;;;;5109448;28;20365;-52
2022/08/20 07:04:27;;;;;;;15.68;12.63;;;22.20;99.90;;;;;;5109823;27;20237;-51
2022/08/20 07:06:56;;;;;;;13.98;12.30;;;22.30;99.90;;;;;;5117518;27;20248;-52
2022/08/20 07:09:26;;;;;;;14.77;12.35;;;22.30;99.90;;;;;;5109739;28;20214;-52
2022/08/20 07:11:55;;;;;;;14.35;11.40;;;22.40;99.90;;;;;;5109834;28;20273;-51
2022/08/20 07:14:24;;;;;;;12.48;11.18;;;22.80;99.90;;;;;;5110080;28;20203;-52
2022/08/20 07:16:52;;;;;;;10.75;9.65;;;22.60;99.90;;;;;;5109967;28;20212;-52
2022/08/20 07:19:20;;;;;;;10.80;9.65;;;22.30;99.90;;;;;;5109440;28;20573;-52
2022/08/20 07:21:49;;;;;;;8.50;7.60;;;22.20;99.90;;;;;;5113502;27;20285;-52
2022/08/20 07:24:17;;;;;;;8.65;7.65;;;22.00;99.90;;;;;;5112990;27;20228;-52
2022/08/20 07:26:45;;;;;;;9.38;8.38;;;21.90;99.90;;;;;;5109214;28;20207;-51
2022/08/20 07:29:15;;;;;;;8.38;7.57;;;21.80;99.90;;;;;;5108851;28;20242;-52
2022/08/20 07:34:36;;;;;;;8.75;7.10;;;21.80;99.90;;;;;;5116372;28;20226;-52
2022/08/20 07:37:10;;;;;;;7.63;6.82;;;21.80;99.90;;;;;;5109398;28;20252;-52
2022/08/20 07:39:38;;;;;;;6.72;6.13;;;21.80;99.90;;;;;;5108680;28;20215;-52
2022/08/20 07:42:07;;;;;;;7.10;6.40;;;21.90;99.90;;;;;;5106164;28;20636;-52
2022/08/20 07:44:38;;;;;;;7.28;6.07;;;22.10;99.90;;;;;;5106304;28;20644;-51
2022/08/20 07:47:06;;;;;;;7.10;6.40;;;22.50;99.90;;;;;;5109342;28;20256;-52
2022/08/20 07:49:38;;;;;;;5.43;4.93;;;22.90;99.90;;;;;;5104531;28;20207;-52
2022/08/20 07:52:06;;;;;;;5.85;5.25;;;22.90;99.90;;;;;;5110579;28;20296;-52
2022/08/20 07:54:36;;;;;;;5.97;5.30;;;23.10;99.90;;;;;;5106867;28;20219;-51
2022/08/20 07:57:05;;;;;;;6.10;4.50;;;23.40;99.90;;;;;;5112723;28;20249;-52
2022/08/20 07:59:33;;;;;;;5.03;4.53;;;24.00;99.90;;;;;;5115521;28;20207;-51
2022/08/20 08:02:03;;;;;;;4.43;4.05;;;24.40;99.90;;;;;;5107962;28;20239;-52
2022/08/20 08:04:31;;;;;;;3.90;3.60;;;24.30;99.90;;;;;;5112614;28;20211;-52
2022/08/20 08:06:59;;;;;;;3.17;2.88;;;24.40;99.90;;;;;;5108993;28;20356;-52
2022/08/20 08:09:28;;;;;;;3.50;3.20;;;24.50;99.90;;;;;;5107139;28;20268;-52
2022/08/20 08:11:59;;;;;;;3.00;2.80;;;24.30;99.90;;;;;;5109734;27;20269;-51
2022/08/20 08:14:30;;;;;;;3.05;2.63;;;24.40;99.90;;;;;;5110825;27;20661;-52
2022/08/20 08:17:03;;;;;;;2.70;2.50;;;24.50;99.90;;;;;;5116066;27;20307;-52
2022/08/20 08:19:37;;;;;;;3.00;2.80;;;24.50;99.90;;;;;;5114491;27;20264;-52
2022/08/20 08:22:10;;;;;;;2.83;2.63;;;24.50;99.90;;;;;;5114856;27;20609;-52
2022/08/20 08:24:38;;;;;;;2.60;2.40;;;24.80;99.90;;;;;;5116736;27;20803;-52
2022/08/20 08:27:07;;;;;;;3.00;2.70;;;25.00;99.90;;;;;;5116155;27;20619;-51
2022/08/20 08:29:36;;;;;;;5.18;2.70;;;25.10;99.90;;;;;;5117497;27;20204;-51
2022/08/20 08:32:07;;;;;;;3.20;2.90;;;25.30;99.90;;;;;;5118103;27;20277;-51
2022/08/20 08:34:36;;;;;;;3.30;3.00;;;25.50;99.90;;;;;;5119123;27;20281;-51
2022/08/20 08:37:05;;;;;;;3.00;2.80;;;25.50;99.90;;;;;;5118422;27;20576;-51
2022/08/20 08:39:34;;;;;;;2.72;2.53;;;25.50;99.90;;;;;;5124887;27;20211;-51
2022/08/20 08:42:15;;;;;;;2.78;2.58;;;25.50;99.90;;;;;;5118118;27;20309;-52
2022/08/20 08:44:43;;;;;;;3.03;2.80;;;25.30;99.90;;;;;;5121300;27;20261;-51
2022/08/20 08:47:20;;;;;;;3.80;3.50;;;25.40;99.90;;;;;;5114198;27;20204;-52
2022/08/20 08:49:48;;;;;;;4.50;2.90;;;24.90;99.90;;;;;;5105490;27;20211;-52
2022/08/20 08:52:21;;;;;;;3.60;3.30;;;25.00;99.90;;;;;;5116402;27;20608;-51
2022/08/20 08:54:53;;;;;;;3.33;2.88;;;25.30;99.90;;;;;;5114845;27;20208;-52
2022/08/20 08:57:22;;;;;;;2.92;2.72;;;25.10;99.90;;;;;;5110218;27;20204;-50
2022/08/20 08:59:55;;;;;;;3.22;2.92;;;25.10;99.90;;;;;;5112214;27;20221;-51
2022/08/20 09:02:37;;;;;;;3.05;2.75;;;25.00;99.90;;;;;;5112580;27;20226;-52
2022/08/20 09:05:14;;;;;;;3.80;3.40;;;25.30;99.90;;;;;;5120422;27;20195;-52
2022/08/20 09:07:46;;;;;;;3.17;2.88;;;25.30;99.90;;;;;;5108064;27;20787;-51
2022/08/20 09:10:15;;;;;;;3.45;2.92;;;25.30;99.90;;;;;;5117743;27;20360;-51
2022/08/20 09:12:49;;;;;;;2.85;2.65;;;25.10;99.90;;;;;;5116084;27;20288;-52
2022/08/20 09:15:20;;;;;;;1.88;1.77;;;25.20;99.90;;;;;;5111495;27;20211;-50
2022/08/20 09:17:49;;;;;;;2.13;2.00;;;25.30;99.90;;;;;;5112750;27;20208;-51
2022/08/20 09:20:18;;;;;;;1.75;1.65;;;25.70;99.90;;;;;;5116175;27;20234;-52
2022/08/20 09:22:46;;;;;;;2.33;2.13;;;25.60;99.90;;;;;;5109748;28;20245;-52
2022/08/20 09:25:16;;;;;;;2.40;2.20;;;25.50;99.90;;;;;;5123433;27;20290;-52
2022/08/20 09:27:44;;;;;;;2.25;2.10;;;25.20;99.90;;;;;;5123285;27;20208;-52
2022/08/20 09:30:15;;;;;;;2.10;1.98;;;25.10;99.90;;;;;;5112529;27;20195;-52
2022/08/20 09:32:45;;;;;;;2.70;2.30;;;25.00;99.90;;;;;;5118594;27;20611;-51
2022/08/20 09:35:15;;;;;;;2.53;2.33;;;25.00;99.90;;;;;;5111205;27;20204;-52
2022/08/20 09:37:43;;;;;;;2.88;2.67;;;24.90;99.90;;;;;;5116712;27;20207;-52
2022/08/20 09:40:13;;;;;;;3.25;3.00;;;24.80;99.90;;;;;;5111908;27;20199;-51
2022/08/20 09:42:49;;;;;;;3.53;3.05;;;24.80;99.90;;;;;;5125147;27;20289;-52
2022/08/20 09:45:17;;;;;;;4.20;2.70;;;24.80;99.90;;;;;;5119604;27;20211;-52
2022/08/20 09:47:45;;;;;;;2.72;2.53;;;25.00;99.90;;;;;;5125879;27;20202;-52
2022/08/20 09:50:26;;;;;;;3.33;2.83;;;25.30;99.90;;;;;;5120496;27;20229;-52
2022/08/20 09:52:57;;;;;;;2.88;2.67;;;25.70;99.90;;;;;;5114486;27;20227;-52
2022/08/20 09:55:31;;;;;;;2.80;2.60;;;26.00;99.90;;;;;;5111459;27;20351;-52
2022/08/20 09:58:00;;;;;;;2.50;2.25;;;26.10;99.90;;;;;;5113676;27;20256;-52
2022/08/20 10:00:29;;;;;;;2.15;2.05;;;26.00;99.90;;;;;;5110568;28;20229;-52
2022/08/20 10:02:57;;;;;;;2.00;1.90;;;25.90;99.90;;;;;;5110054;28;20277;-52
2022/08/20 10:05:26;;;;;;;1.77;1.67;;;25.80;99.90;;;;;;5115506;27;20253;-52
2022/08/20 10:07:54;;;;;;;1.92;1.70;;;25.70;99.90;;;;;;5113352;27;20214;-51
2022/08/20 10:10:23;;;;;;;1.90;1.70;;;25.50;99.90;;;;;;5109496;28;20204;-52
2022/08/20 10:12:51;;;;;;;1.95;1.85;;;25.30;99.90;;;;;;5109845;28;20280;-52
2022/08/20 10:15:22;;;;;;;1.70;1.60;;;25.30;99.90;;;;;;5110425;28;20215;-51
2022/08/20 10:17:50;;;;;;;2.67;1.80;;;25.30;99.90;;;;;;5114080;27;20672;-52
2022/08/20 10:20:18;;;;;;;2.45;1.80;;;25.40;99.90;;;;;;5109871;28;20211;-52
2022/08/20 10:22:47;;;;;;;4.53;2.00;;;25.50;99.90;;;;;;5109865;28;20646;-51
2022/08/20 10:25:16;;;;;;;1.98;1.88;;;25.60;99.90;;;;;;5110018;28;20276;-51
2022/08/20 10:27:45;;;;;;;1.90;1.80;;;25.70;99.90;;;;;;5110146;27;20687;-52
2022/08/20 10:30:13;;;;;;;2.20;2.10;;;25.80;99.90;;;;;;5110310;28;20672;-51
2022/08/20 10:32:41;;;;;;;2.10;2.00;;;25.70;99.90;;;;;;5102208;27;20269;-52
2022/08/20 10:35:09;;;;;;;2.50;2.35;;;25.70;99.90;;;;;;5110193;27;20241;-51
2022/08/20 10:37:37;;;;;;;4.80;4.25;;;25.50;99.90;;;;;;5113578;27;20233;-52
2022/08/20 10:40:08;;;;;;;7.18;4.20;;;25.20;99.90;;;;;;5109102;28;20245;-51
2022/08/20 10:42:37;;;;;;;4.68;3.72;;;25.00;99.90;;;;;;5108962;28;20219;-52
2022/08/20 10:45:10;;;;;;;4.30;4.00;;;24.70;99.90;;;;;;5112431;27;20287;-52
2022/08/20 10:47:39;;;;;;;5.30;4.65;;;24.40;99.90;;;;;;5109233;28;20241;-52
2022/08/20 10:50:11;;;;;;;6.03;5.47;;;24.10;99.90;;;;;;5111244;27;20242;-51
2022/08/20 10:52:39;;;;;;;9.40;5.43;;;23.80;99.90;;;;;;5109985;27;20223;-49
2022/08/20 10:55:09;;;;;;;8.77;6.47;;;23.50;99.90;;;;;;5119030;27;20215;-51
2022/08/20 10:57:39;;;;;;;7.70;5.97;;;23.30;99.90;;;;;;5117947;27;20199;-51
2022/08/20 11:00:08;;;;;;;7.38;5.63;;;23.00;99.90;;;;;;5112229;27;20211;-52
2022/08/20 11:02:37;;;;;;;7.25;5.82;;;22.80;99.90;;;;;;5112200;27;20236;-51
2022/08/20 11:05:06;;;;;;;5.95;5.30;;;22.70;99.90;;;;;;5109916;28;20211;-51
2022/08/20 11:07:36;;;;;;;6.55;5.93;;;22.60;99.90;;;;;;5097197;27;20267;-51
2022/08/20 11:10:26;;;;;;;6.00;5.45;;;22.60;99.90;;;;;;5113182;27;20302;-51
2022/08/20 11:12:54;;;;;;;7.82;6.72;;;22.50;99.90;;;;;;5102261;27;20684;-51
2022/08/20 11:15:22;;;;;;;8.00;6.50;;;22.40;99.90;;;;;;5104013;27;20726;-50
2022/08/20 11:17:51;;;;;;;8.55;7.05;;;22.40;99.90;;;;;;5113776;27;20203;-52
2022/08/20 11:20:22;;;;;;;8.93;6.13;;;22.30;99.90;;;;;;5109014;28;20210;-51
2022/08/20 11:22:50;;;;;;;6.75;6.13;;;22.30;99.90;;;;;;5108998;28;20219;-51
2022/08/20 11:25:19;;;;;;;7.50;6.70;;;22.20;99.90;;;;;;5115900;27;20624;-51
2022/08/20 11:27:50;;;;;;;6.93;6.25;;;22.20;99.90;;;;;;5108839;28;20203;-50
2022/08/20 11:30:21;;;;;;;6.68;5.80;;;22.20;99.90;;;;;;5109396;28;20211;-51
2022/08/20 11:32:49;;;;;;;7.15;6.10;;;22.20;99.90;;;;;;5105229;28;20260;-52
2022/08/20 11:35:20;;;;;;;5.90;5.30;;;22.10;99.90;;;;;;5098444;28;20892;-52
2022/08/20 11:38:08;;;;;;;5.13;4.72;;;22.20;99.90;;;;;;5108347;28;20290;-52
2022/08/20 11:40:36;;;;;;;5.65;5.15;;;22.50;99.90;;;;;;5107945;28;20262;-51
2022/08/20 11:43:06;;;;;;;5.97;5.40;;;22.60;99.90;;;;;;5108683;28;20283;-51
2022/08/20 11:45:44;;;;;;;6.22;5.57;;;22.70;99.90;;;;;;5103793;28;20203;-51
2022/08/20 11:48:12;;;;;;;5.85;5.30;;;22.70;99.90;;;;;;5108513;28;20203;-52
2022/08/20 11:50:40;;;;;;;6.00;4.80;;;22.70;99.90;;;;;;5103823;28;20261;-52
2022/08/20 11:53:08;;;;;;;5.28;4.80;;;22.90;99.90;;;;;;5114434;27;20230;-52
2022/08/20 11:55:38;;;;;;;5.25;4.38;;;23.00;99.90;;;;;;5114559;27;20668;-51
2022/08/20 11:58:09;;;;;;;4.55;4.15;;;23.10;99.90;;;;;;5112046;28;20679;-51
2022/08/20 12:00:38;;;;;;;4.80;4.40;;;23.20;99.90;;;;;;5112375;28;20676;-52
2022/08/20 12:03:07;;;;;;;4.38;4.03;;;23.20;99.90;;;;;;5114996;27;20764;-51
2022/08/20 12:05:39;;;;;;;3.70;3.40;;;23.30;99.90;;;;;;5110066;27;20199;-51
2022/08/20 12:08:08;;;;;;;3.20;3.00;;;23.40;99.90;;;;;;5112752;28;20211;-52
2022/08/20 12:10:36;;;;;;;4.15;3.08;;;23.30;99.90;;;;;;5111235;28;20212;-51
2022/08/20 12:13:05;;;;;;;4.30;3.03;;;23.20;99.90;;;;;;5116097;27;20235;-52
2022/08/20 12:15:35;;;;;;;3.90;3.25;;;23.20;99.90;;;;;;5109995;28;20257;-52
2022/08/20 12:18:07;;;;;;;3.08;2.78;;;23.30;99.90;;;;;;5110826;28;20607;-51
2022/08/20 12:20:35;;;;;;;3.38;3.08;;;23.50;99.90;;;;;;5109069;28;20296;-52
2022/08/20 12:23:05;;;;;;;2.95;2.75;;;23.60;99.90;;;;;;5108705;28;20288;-51
2022/08/20 12:25:35;;;;;;;3.58;3.20;;;23.70;99.90;;;;;;5116876;27;20290;-53
2022/08/20 12:28:04;;;;;;;3.33;2.90;;;23.90;99.90;;;;;;5114928;27;20199;-52
2022/08/20 12:30:34;;;;;;;3.83;3.03;;;24.10;99.90;;;;;;5116965;27;20208;-52
2022/08/20 12:33:03;;;;;;;3.40;3.10;;;24.40;99.90;;;;;;5115291;27;20228;-52
2022/08/20 12:35:31;;;;;;;3.67;3.40;;;24.70;99.90;;;;;;5123898;27;20256;-52
2022/08/20 12:38:03;;;;;;;4.47;3.97;;;24.80;99.90;;;;;;5111869;28;20204;-52
2022/08/20 12:40:32;;;;;;;4.15;3.85;;;24.90;99.90;;;;;;5110599;28;20199;-52
2022/08/20 12:43:00;;;;;;;5.43;4.03;;;25.20;99.90;;;;;;5112346;28;20227;-53
2022/08/20 12:45:29;;;;;;;3.88;3.58;;;25.20;99.90;;;;;;5110907;28;20207;-53
2022/08/20 12:48:03;;;;;;;4.10;3.80;;;25.00;99.90;;;;;;5121637;27;20200;-52
2022/08/20 12:50:32;;;;;;;3.65;3.25;;;25.00;99.90;;;;;;5111234;28;20203;-53
2022/08/20 12:53:01;;;;;;;3.80;3.38;;;25.00;99.90;;;;;;5111055;28;20318;-53
2022/08/20 12:55:30;;;;;;;3.85;3.55;;;25.00;99.90;;;;;;5111508;28;20208;-52
2022/08/20 12:58:00;;;;;;;5.38;4.88;;;25.10;99.90;;;;;;5119508;27;20202;-53
2022/08/20 13:00:31;;;;;;;5.13;4.63;;;25.20;99.90;;;;;;5112110;27;20207;-53